createdAt,value
2022-10-06T00:01:29.880Z,3.33
2022-10-06T00:03:59.829Z,5.13
2022-10-06T00:06:32.244Z,4.55
2022-10-06T00:09:02.108Z,5.95
2022-10-06T00:11:31.948Z,5.35
2022-10-06T00:14:01.797Z,6.32
2022-10-06T00:16:31.635Z,4.53
2022-10-06T00:19:01.502Z,5.75
2022-10-06T00:21:34.178Z,8.85
2022-10-06T00:24:04.022Z,6.75
2022-10-06T00:26:33.839Z,5.53
2022-10-06T00:29:03.801Z,5.32
2022-10-06T00:31:34.662Z,3.65
2022-10-06T00:34:05.156Z,5.20
2022-10-06T00:36:37.713Z,4.57
2022-10-06T00:39:07.685Z,5.97
2022-10-06T00:41:37.580Z,6.05
2022-10-06T00:44:07.425Z,8.80
2022-10-06T00:46:40.754Z,5.85
2022-10-06T00:49:14.970Z,7.65
2022-10-06T00:51:51.411Z,4.50
2022-10-06T00:54:21.498Z,5.80
2022-10-06T00:56:51.326Z,4.57
2022-10-06T00:59:22.142Z,4.90
2022-10-06T01:01:58.174Z,6.50
2022-10-06T01:04:28.657Z,5.05
2022-10-06T01:07:01.722Z,3.30
2022-10-06T01:09:32.435Z,6.88
2022-10-06T01:12:04.304Z,4.53
2022-10-06T01:14:34.477Z,4.13
2022-10-06T01:17:07.857Z,8.00
2022-10-06T01:19:47.425Z,6.50
2022-10-06T01:22:28.991Z,4.13
2022-10-06T01:24:59.609Z,5.25
2022-10-06T01:27:31.508Z,6.07
2022-10-06T01:30:02.621Z,4.22
2022-10-06T01:32:36.622Z,4.32
2022-10-06T01:35:09.353Z,3.78
2022-10-06T01:37:41.890Z,3.70
2022-10-06T01:40:14.039Z,7.50
2022-10-06T01:42:44.156Z,5.80
2022-10-06T01:45:14.141Z,4.20
2022-10-06T01:47:43.985Z,6.70
2022-10-06T01:50:14.411Z,6.57
2022-10-06T01:52:47.617Z,7.03
2022-10-06T01:55:17.650Z,5.25
2022-10-06T01:57:47.898Z,4.75
2022-10-06T02:00:20.259Z,7.18
2022-10-06T02:02:51.254Z,7.53
2022-10-06T02:05:21.441Z,6.93
2022-10-06T02:07:57.256Z,7.07
2022-10-06T02:10:27.159Z,7.55
2022-10-06T02:12:57.384Z,3.95
2022-10-06T02:15:28.226Z,6.55
2022-10-06T02:17:58.170Z,6.65
2022-10-06T02:20:30.324Z,5.85
2022-10-06T02:23:02.769Z,6.13
2022-10-06T02:25:32.666Z,5.88
2022-10-06T02:28:02.870Z,6.25
2022-10-06T02:30:33.099Z,8.35
2022-10-06T02:33:03.089Z,7.78
2022-10-06T02:35:33.165Z,8.82
2022-10-06T02:38:05.691Z,6.53
2022-10-06T02:40:35.835Z,7.78
2022-10-06T02:43:05.652Z,6.30
2022-10-06T02:45:35.525Z,11.38
2022-10-06T02:48:05.358Z,9.88
2022-10-06T02:50:35.814Z,9.25
2022-10-06T02:53:09.700Z,10.63
2022-10-06T02:55:39.679Z,9.50
2022-10-06T02:58:11.460Z,8.93
2022-10-06T03:00:41.402Z,8.65
2022-10-06T03:03:11.276Z,11.30
2022-10-06T03:05:41.887Z,14.48
2022-10-06T03:08:15.921Z,8.27
2022-10-06T03:10:46.543Z,7.22
2022-10-06T03:13:16.440Z,7.10
2022-10-06T03:15:46.351Z,6.32
2022-10-06T03:18:16.295Z,6.65
2022-10-06T03:20:46.474Z,6.53
2022-10-06T03:23:18.916Z,7.63
2022-10-06T03:25:58.526Z,7.65
2022-10-06T03:28:28.979Z,7.43
2022-10-06T03:31:04.114Z,7.22
2022-10-06T03:33:34.809Z,8.95
2022-10-06T03:36:06.915Z,6.82
2022-10-06T03:38:40.816Z,6.70
2022-10-06T03:41:12.846Z,6.50
2022-10-06T03:43:43.759Z,7.43
2022-10-06T03:46:15.310Z,6.50
2022-10-06T03:48:45.693Z,6.10
2022-10-06T03:51:17.293Z,5.25
2022-10-06T03:53:52.321Z,6.35
2022-10-06T03:56:24.659Z,7.95
2022-10-06T03:58:56.319Z,6.85
2022-10-06T04:01:27.992Z,8.25
2022-10-06T04:03:59.734Z,5.70
2022-10-06T04:06:30.853Z,7.10
2022-10-06T04:09:03.894Z,5.35
2022-10-06T04:11:36.025Z,5.07
2022-10-06T04:14:08.514Z,5.18
2022-10-06T04:16:40.196Z,6.25
2022-10-06T04:19:12.782Z,4.75
2022-10-06T04:21:48.436Z,5.40
2022-10-06T04:24:24.830Z,5.78
2022-10-06T04:27:15.418Z,5.88
2022-10-06T04:29:46.908Z,9.70
2022-10-06T04:32:17.181Z,7.05
2022-10-06T04:34:47.174Z,7.07
2022-10-06T04:37:17.622Z,7.18
2022-10-06T04:39:50.635Z,6.53
2022-10-06T04:42:21.372Z,5.70
2022-10-06T04:44:51.414Z,5.25
2022-10-06T04:47:21.263Z,5.10
2022-10-06T04:49:52.063Z,6.38
2022-10-06T04:52:23.079Z,6.38
2022-10-06T04:54:56.140Z,6.72
2022-10-06T04:57:26.080Z,7.25
2022-10-06T05:00:13.930Z,7.07
2022-10-06T05:02:46.084Z,8.00
2022-10-06T05:05:16.172Z,7.20
2022-10-06T05:07:46.836Z,6.22
2022-10-06T05:10:20.247Z,6.10
2022-10-06T05:12:50.110Z,4.78
2022-10-06T05:15:20.097Z,9.05
2022-10-06T05:17:49.981Z,6.80
2022-10-06T05:20:22.911Z,9.30
2022-10-06T05:22:53.408Z,6.35
2022-10-06T05:25:25.861Z,7.45
2022-10-06T05:27:56.450Z,7.15
2022-10-06T05:30:26.369Z,10.52
2022-10-06T05:32:56.185Z,8.35
2022-10-06T05:35:27.164Z,5.43
2022-10-06T05:37:57.665Z,8.35
2022-10-06T05:40:30.176Z,6.80
2022-10-06T05:43:00.039Z,6.68
2022-10-06T05:45:30.277Z,4.70
2022-10-06T05:48:00.923Z,8.23
2022-10-06T05:50:30.807Z,6.85
2022-10-06T05:53:00.923Z,5.00
2022-10-06T05:55:33.799Z,4.40
2022-10-06T05:58:03.699Z,4.68
2022-10-06T06:00:33.929Z,8.43
2022-10-06T06:03:03.951Z,5.45
2022-10-06T06:05:34.091Z,6.97
2022-10-06T06:08:04.037Z,5.85
2022-10-06T06:10:36.614Z,9.30
2022-10-06T06:13:06.578Z,4.88
2022-10-06T06:15:54.158Z,4.65
2022-10-06T06:18:24.009Z,6.47
2022-10-06T06:20:59.097Z,5.80
2022-10-06T06:23:34.741Z,6.32
2022-10-06T06:26:09.019Z,6.78
2022-10-06T06:28:43.895Z,8.90
2022-10-06T06:31:19.926Z,7.47
2022-10-06T06:33:54.473Z,10.27
2022-10-06T06:36:27.858Z,4.07
2022-10-06T06:38:58.949Z,6.00
2022-10-06T06:41:33.402Z,7.70
2022-10-06T06:44:11.553Z,8.05
2022-10-06T06:46:47.738Z,8.40
2022-10-06T06:49:20.652Z,6.35
2022-10-06T06:51:55.420Z,5.20
2022-10-06T06:54:27.817Z,7.45
2022-10-06T06:57:07.137Z,4.90
2022-10-06T06:59:38.277Z,5.57
2022-10-06T07:02:12.337Z,3.90
2022-10-06T07:04:46.491Z,3.83
2022-10-06T07:07:19.659Z,5.50
2022-10-06T07:09:49.492Z,6.32
2022-10-06T07:12:25.375Z,6.40
2022-10-06T07:15:12.870Z,4.45
2022-10-06T07:17:57.604Z,5.43
2022-10-06T07:20:39.924Z,5.25
2022-10-06T07:23:24.159Z,3.45
2022-10-06T07:25:55.654Z,5.18
2022-10-06T07:28:30.847Z,6.43
2022-10-06T07:31:01.354Z,6.47
2022-10-06T07:33:33.928Z,5.43
2022-10-06T07:36:07.322Z,5.93
2022-10-06T07:38:37.768Z,5.32
2022-10-06T07:41:18.971Z,4.88
2022-10-06T07:46:33.409Z,4.97
2022-10-06T07:49:11.104Z,7.35
2022-10-06T07:51:43.073Z,4.07
2022-10-06T07:54:13.082Z,5.68
2022-10-06T07:56:50.121Z,8.45
2022-10-06T07:59:22.869Z,4.97
2022-10-06T08:01:53.036Z,5.63
2022-10-06T08:04:22.928Z,7.05
2022-10-06T08:06:54.665Z,4.85
2022-10-06T08:09:24.508Z,4.82
2022-10-06T08:11:54.398Z,4.88
2022-10-06T08:14:26.915Z,5.35
2022-10-06T08:16:57.181Z,6.35
2022-10-06T08:19:27.097Z,3.60
2022-10-06T08:21:58.969Z,4.05
2022-10-06T08:24:54.117Z,4.88
2022-10-06T08:27:24.386Z,4.57
2022-10-06T08:29:57.385Z,4.30
2022-10-06T08:32:27.632Z,6.13
2022-10-06T08:34:57.954Z,4.68
2022-10-06T08:37:28.170Z,6.30
2022-10-06T08:39:58.744Z,6.03
2022-10-06T08:42:34.815Z,6.05
2022-10-06T08:45:14.708Z,4.53
2022-10-06T08:47:53.710Z,4.78
2022-10-06T08:50:24.226Z,8.52
2022-10-06T08:53:00.484Z,4.25
2022-10-06T08:55:38.936Z,6.00
2022-10-06T08:58:23.398Z,12.32
2022-10-06T09:00:56.993Z,4.28
2022-10-06T09:03:31.412Z,6.18
2022-10-06T09:06:07.279Z,5.88
2022-10-06T09:08:47.338Z,2.97
2022-10-06T09:11:29.640Z,4.63
2022-10-06T09:14:04.200Z,3.53
2022-10-06T09:16:39.876Z,5.53
2022-10-06T09:19:14.384Z,5.25
2022-10-06T09:21:47.504Z,3.97
2022-10-06T09:24:19.587Z,4.75
2022-10-06T09:26:52.856Z,4.05
2022-10-06T09:29:22.707Z,3.72
2022-10-06T09:31:55.163Z,4.60
2022-10-06T09:34:29.224Z,2.67
2022-10-06T09:37:03.327Z,5.75
2022-10-06T09:39:36.956Z,3.08
2022-10-06T09:42:15.447Z,6.18
2022-10-06T09:44:56.306Z,3.95
2022-10-06T09:47:37.132Z,5.65
2022-10-06T09:50:17.623Z,4.53
2022-10-06T09:53:05.556Z,5.05
2022-10-06T09:55:37.437Z,7.22
2022-10-06T09:58:19.472Z,7.80
2022-10-06T10:00:55.257Z,7.15
2022-10-06T10:03:31.431Z,3.28
2022-10-06T10:06:02.418Z,4.40
2022-10-06T10:08:32.776Z,5.88
2022-10-06T10:11:33.426Z,4.63
2022-10-06T10:14:04.196Z,5.63
2022-10-06T10:16:35.677Z,4.05
2022-10-06T10:19:10.740Z,13.27
2022-10-06T10:21:42.103Z,6.13
2022-10-06T10:24:21.892Z,9.35
2022-10-06T10:26:57.230Z,9.20
2022-10-06T10:29:49.243Z,9.23
2022-10-06T10:32:22.406Z,6.47
2022-10-06T10:35:03.232Z,10.32
2022-10-06T10:37:43.170Z,6.47
2022-10-06T10:40:28.654Z,4.93
2022-10-06T10:43:10.375Z,3.88
2022-10-06T10:45:44.971Z,5.38
2022-10-06T10:48:18.705Z,4.78
2022-10-06T10:50:57.537Z,7.10
2022-10-06T10:53:37.626Z,7.15
2022-10-06T10:56:12.366Z,4.10
2022-10-06T10:58:45.006Z,4.00
2022-10-06T11:01:25.775Z,3.65
2022-10-06T11:03:59.337Z,5.00
2022-10-06T11:06:54.423Z,3.38
2022-10-06T11:09:27.322Z,4.05
2022-10-06T11:12:05.292Z,5.90
2022-10-06T11:14:54.086Z,8.48
2022-10-06T11:17:44.350Z,5.13
2022-10-06T11:20:46.925Z,3.40
2022-10-06T11:23:43.425Z,3.42
2022-10-06T11:26:25.745Z,4.63
2022-10-06T11:29:00.959Z,7.15
2022-10-06T11:31:37.560Z,5.15
2022-10-06T11:34:09.260Z,5.07
2022-10-06T11:36:45.789Z,4.45
2022-10-06T11:39:24.444Z,4.72
2022-10-06T11:41:57.945Z,8.23
2022-10-06T11:44:32.745Z,4.60
2022-10-06T11:47:06.341Z,4.97
2022-10-06T11:49:52.330Z,4.80
2022-10-06T11:52:37.829Z,3.42
2022-10-06T11:55:17.709Z,5.43
2022-10-06T12:01:09.577Z,4.05
2022-10-06T12:04:07.289Z,5.10
2022-10-06T12:07:07.098Z,8.00
2022-10-06T12:09:51.007Z,4.50
2022-10-06T12:13:31.740Z,5.75
2022-10-06T12:19:22.028Z,7.07
2022-10-06T12:21:58.240Z,7.90
2022-10-06T12:24:37.093Z,5.18
2022-10-06T12:27:28.841Z,6.43
2022-10-06T12:30:04.430Z,5.97
2022-10-06T12:32:49.330Z,5.97
2022-10-06T12:35:33.213Z,6.15
2022-10-06T12:38:05.516Z,5.03
2022-10-06T12:40:54.653Z,5.35
2022-10-06T12:46:08.449Z,5.45
2022-10-06T12:48:44.427Z,7.07
2022-10-06T12:51:25.364Z,6.22
2022-10-06T12:54:00.674Z,9.07
2022-10-06T12:56:32.832Z,8.15
2022-10-06T12:59:20.680Z,6.13
2022-10-06T13:01:51.052Z,4.35
2022-10-06T13:04:37.953Z,5.90
2022-10-06T13:07:14.626Z,4.65
2022-10-06T13:09:44.830Z,6.53
2022-10-06T13:12:26.838Z,5.03
2022-10-06T13:15:13.430Z,5.63
2022-10-06T13:17:44.310Z,5.07
2022-10-06T13:20:27.705Z,6.75
2022-10-06T13:23:02.831Z,2.80
2022-10-06T13:25:38.137Z,5.25
2022-10-06T13:28:08.118Z,5.82
2022-10-06T13:30:39.006Z,5.75
2022-10-06T13:33:10.560Z,4.10
2022-10-06T13:35:43.138Z,5.07
2022-10-06T13:38:13.477Z,4.55
2022-10-06T13:40:45.036Z,4.95
2022-10-06T13:43:20.332Z,6.32
2022-10-06T13:45:52.212Z,4.22
2022-10-06T13:48:24.927Z,3.55
2022-10-06T13:53:49.403Z,4.45
2022-10-06T13:56:37.199Z,5.22
2022-10-06T13:59:37.384Z,6.43
2022-10-06T14:02:25.177Z,3.47
2022-10-06T14:05:27.102Z,4.10
2022-10-06T14:08:01.920Z,3.85
2022-10-06T14:10:34.604Z,4.15
2022-10-06T14:13:04.515Z,2.22
2022-10-06T14:15:39.454Z,3.58
2022-10-06T14:18:09.388Z,5.03
2022-10-06T14:20:41.490Z,2.95
2022-10-06T14:23:41.555Z,1.70
2022-10-06T14:26:12.351Z,4.20
2022-10-06T14:28:43.069Z,8.07
2022-10-06T14:31:14.709Z,4.10
2022-10-06T14:33:44.979Z,5.75
2022-10-06T14:36:19.258Z,4.00
2022-10-06T14:38:53.542Z,2.95
2022-10-06T14:41:27.659Z,3.67
2022-10-06T14:43:58.344Z,3.55
2022-10-06T14:46:28.795Z,5.13
2022-10-06T14:48:59.026Z,2.20
2022-10-06T14:51:31.065Z,5.85
2022-10-06T14:54:08.049Z,5.35
2022-10-06T14:56:39.639Z,7.38
2022-10-06T14:59:12.209Z,8.43
2022-10-06T15:01:42.877Z,9.23
2022-10-06T15:04:14.516Z,8.52
2022-10-06T15:06:57.306Z,9.98
2022-10-06T15:09:31.309Z,7.43
2022-10-06T15:12:02.423Z,5.57
2022-10-06T15:14:32.274Z,11.13
2022-10-06T15:17:02.312Z,11.05
2022-10-06T15:19:32.180Z,9.40
2022-10-06T15:22:03.926Z,16.38
2022-10-06T15:24:36.501Z,13.30
2022-10-06T15:27:23.918Z,11.30
2022-10-06T15:29:56.212Z,11.85
2022-10-06T15:32:26.111Z,10.75
2022-10-06T15:34:55.935Z,7.70
2022-10-06T15:37:25.878Z,4.15
2022-10-06T15:39:58.406Z,5.88
2022-10-06T15:42:28.338Z,9.13
2022-10-06T15:44:58.207Z,5.32
2022-10-06T15:47:28.090Z,7.43
2022-10-06T15:49:57.974Z,4.10
2022-10-06T15:52:33.964Z,6.18
2022-10-06T15:55:06.812Z,4.63
2022-10-06T15:57:37.458Z,5.18
2022-10-06T16:00:09.243Z,4.57
2022-10-06T16:02:42.224Z,5.25
2022-10-06T16:05:45.347Z,3.45
2022-10-06T16:08:15.173Z,3.80
2022-10-06T16:10:52.473Z,4.28
2022-10-06T16:13:22.306Z,7.32
2022-10-06T16:15:55.727Z,10.18
2022-10-06T16:18:25.918Z,8.10
2022-10-06T16:20:56.713Z,36.40
2022-10-06T16:23:26.727Z,25.38
2022-10-06T16:25:59.370Z,63.78
2022-10-06T16:28:29.268Z,76.43
2022-10-06T16:30:59.403Z,47.53
2022-10-06T16:33:29.266Z,63.75
2022-10-06T16:35:59.458Z,54.08
2022-10-06T16:38:29.481Z,55.20
2022-10-06T16:41:03.921Z,51.40
2022-10-06T16:43:34.791Z,63.38
2022-10-06T16:46:06.410Z,54.97
2022-10-06T16:48:37.762Z,58.88
2022-10-06T16:51:09.580Z,132.50
2022-10-06T16:53:40.791Z,117.90
2022-10-06T16:56:16.245Z,68.18
2022-10-06T16:58:48.027Z,30.92
2022-10-06T17:01:19.493Z,51.17
2022-10-06T17:03:49.376Z,51.42
2022-10-06T17:06:20.568Z,38.50
2022-10-06T17:08:50.439Z,40.75
2022-10-06T17:11:25.454Z,77.18
2022-10-06T17:13:57.226Z,58.78
2022-10-06T17:16:28.872Z,62.75
2022-10-06T17:18:59.838Z,28.52
2022-10-06T17:21:45.509Z,80.70
2022-10-06T17:24:18.006Z,155.90
2022-10-06T17:26:52.049Z,138.98
2022-10-06T17:29:23.461Z,138.20
2022-10-06T17:31:56.473Z,85.82
2022-10-06T17:34:30.716Z,54.20
2022-10-06T17:37:02.218Z,168.20
2022-10-06T17:39:32.169Z,86.63
2022-10-06T17:42:05.381Z,63.38
2022-10-06T17:44:35.614Z,46.40
2022-10-06T17:47:05.421Z,81.57
2022-10-06T17:49:35.354Z,63.13
2022-10-06T17:52:05.928Z,79.32
2022-10-06T17:54:35.803Z,57.10
2022-10-06T17:57:08.269Z,34.13
2022-10-06T17:59:38.338Z,30.30
2022-10-06T18:02:09.347Z,25.40
2022-10-06T18:04:39.250Z,22.27
2022-10-06T18:07:10.317Z,29.83
2022-10-06T18:09:40.162Z,35.58
2022-10-06T18:12:10.562Z,70.20
2022-10-06T18:14:40.440Z,78.10
2022-10-06T18:17:10.268Z,58.10
2022-10-06T18:19:40.389Z,36.15
2022-10-06T18:22:13.064Z,51.20
2022-10-06T18:24:43.520Z,28.77
2022-10-06T18:27:16.221Z,23.15
2022-10-06T18:29:46.062Z,20.80
2022-10-06T18:38:00.249Z,44.70
2022-10-06T18:40:30.158Z,38.95
2022-10-06T18:43:02.627Z,32.53
2022-10-06T18:45:45.034Z,32.67
2022-10-06T18:48:30.726Z,49.97
2022-10-06T18:51:07.149Z,50.53
2022-10-06T18:53:38.497Z,40.67
2022-10-06T18:56:08.756Z,67.63
2022-10-06T18:58:44.503Z,41.35
2022-10-06T19:01:14.906Z,30.23
2022-10-06T19:03:44.943Z,48.08
2022-10-06T19:06:14.813Z,42.08
2022-10-06T19:08:45.159Z,28.13
2022-10-06T19:11:27.427Z,19.38
2022-10-06T19:14:00.261Z,25.55
2022-10-06T19:16:30.209Z,34.03
2022-10-06T19:19:00.084Z,33.78
2022-10-06T19:21:30.319Z,29.98
2022-10-06T19:24:02.137Z,25.63
2022-10-06T19:26:32.103Z,20.25
2022-10-06T19:29:08.215Z,23.75
2022-10-06T19:31:40.064Z,31.42
2022-10-06T19:34:11.179Z,30.83
2022-10-06T19:36:42.029Z,32.55
2022-10-06T19:39:14.566Z,38.95
2022-10-06T19:41:57.103Z,32.78
2022-10-06T19:44:30.380Z,11.00
2022-10-06T19:47:00.276Z,21.05
2022-10-06T19:49:30.102Z,8.43
2022-10-06T19:51:59.996Z,12.10
2022-10-06T19:54:30.873Z,7.95
2022-10-06T19:57:05.302Z,10.45
2022-10-06T19:59:38.384Z,6.65
2022-10-06T20:02:09.825Z,7.88
2022-10-06T20:04:40.638Z,10.65
2022-10-06T20:07:11.822Z,15.07
2022-10-06T20:09:41.785Z,27.63
2022-10-06T20:12:12.301Z,34.05
2022-10-06T20:14:44.801Z,31.65
2022-10-06T20:17:14.642Z,22.33
2022-10-06T20:19:45.479Z,23.33
2022-10-06T20:22:15.364Z,18.95
2022-10-06T20:24:45.481Z,21.63
2022-10-06T20:27:15.350Z,21.42
2022-10-06T20:29:47.782Z,37.20
2022-10-06T20:32:17.666Z,19.63
2022-10-06T20:34:47.579Z,17.17
2022-10-06T20:37:17.473Z,19.90
2022-10-06T20:39:59.718Z,21.35
2022-10-06T20:42:31.449Z,26.95
2022-10-06T20:45:03.986Z,39.70
2022-10-06T20:47:33.979Z,30.00
2022-10-06T20:50:03.818Z,28.65
2022-10-06T20:52:33.677Z,32.13
2022-10-06T20:55:05.560Z,37.90
2022-10-06T20:57:35.443Z,34.33
2022-10-06T21:00:08.910Z,28.83
2022-10-06T21:02:38.847Z,49.30
2022-10-06T21:05:10.187Z,59.30
2022-10-06T21:07:40.088Z,106.93
2022-10-06T21:10:11.466Z,80.32
2022-10-06T21:12:41.387Z,85.07
2022-10-06T21:15:14.196Z,66.43
2022-10-06T21:17:46.556Z,60.35
2022-10-06T21:20:16.987Z,54.85
2022-10-06T21:22:46.856Z,49.25
2022-10-06T21:25:16.827Z,51.85
2022-10-06T21:27:46.866Z,39.92
2022-10-06T21:30:19.671Z,21.23
2022-10-06T21:32:49.528Z,24.88
2022-10-06T21:35:19.367Z,79.80
2022-10-06T21:37:49.461Z,123.68
2022-10-06T21:40:19.291Z,84.80
2022-10-06T21:42:49.204Z,75.20
2022-10-06T21:45:24.629Z,100.13
2022-10-06T21:47:55.355Z,74.43
2022-10-06T21:50:25.227Z,54.47
2022-10-06T21:52:55.130Z,38.08
2022-10-06T21:55:24.988Z,40.63
2022-10-06T21:57:54.848Z,50.90
2022-10-06T22:00:27.323Z,42.42
2022-10-06T22:02:57.243Z,30.65
2022-10-06T22:05:27.256Z,21.88
2022-10-06T22:07:57.103Z,20.95
2022-10-06T22:10:26.971Z,26.15
2022-10-06T22:12:56.884Z,28.40
2022-10-06T22:15:29.405Z,21.27
2022-10-06T22:17:59.248Z,25.50
2022-10-06T22:20:29.191Z,18.17
2022-10-06T22:23:02.652Z,21.80
2022-10-06T22:25:34.687Z,20.38
2022-10-06T22:28:04.569Z,33.45
2022-10-06T22:30:37.092Z,74.18
2022-10-06T22:33:07.121Z,40.72
2022-10-06T22:35:36.949Z,28.90
2022-10-06T22:38:06.818Z,22.73
2022-10-06T22:40:36.655Z,19.65
2022-10-06T22:43:06.527Z,19.90
2022-10-06T22:45:38.984Z,20.33
2022-10-06T22:48:08.837Z,16.25
2022-10-06T22:50:38.694Z,15.77
2022-10-06T22:53:08.560Z,16.17
2022-10-06T22:55:38.434Z,26.70
2022-10-06T22:58:08.318Z,23.23
2022-10-06T23:00:41.380Z,21.23
2022-10-06T23:03:11.666Z,15.32
2022-10-06T23:05:41.888Z,16.42
2022-10-06T23:08:11.805Z,14.85
2022-10-06T23:10:41.669Z,18.98
2022-10-06T23:13:11.525Z,21.30
2022-10-06T23:15:43.993Z,28.13
2022-10-06T23:18:13.973Z,35.55
2022-10-06T23:20:43.843Z,38.13
2022-10-06T23:23:13.860Z,31.48
2022-10-06T23:25:45.502Z,33.03
2022-10-06T23:28:17.191Z,33.40
2022-10-06T23:30:49.674Z,33.10
2022-10-06T23:33:19.561Z,57.20
2022-10-06T23:35:58.844Z,28.98
2022-10-06T23:40:58.607Z,22.85
2022-10-06T23:43:28.520Z,19.40
2022-10-06T23:46:01.535Z,18.70
2022-10-06T23:48:31.810Z,31.40
2022-10-06T23:51:02.671Z,34.03
2022-10-06T23:53:33.500Z,21.17
2022-10-06T23:56:03.872Z,18.33
2022-10-06T23:58:33.802Z,21.58
